METAR Data
IDs: Format: Raw Decoded Include TAF

Data at: 0827 UTC 18 Sep 2021

ZGNN 180800Z 23003MPS 200V260 9999 SCT026 30/23 Q1009 NOSIG